createdAt,value
2018-06-28T00:00:33.719Z,72.12
2018-06-28T00:01:33.778Z,72.22
2018-06-28T00:03:26.768Z,70.68
2018-06-28T00:04:26.834Z,70.20
2018-06-28T00:06:19.837Z,70.10
2018-06-28T00:07:19.892Z,70.01
2018-06-28T00:09:12.896Z,69.24
2018-06-28T00:10:12.951Z,68.85
2018-06-28T00:12:05.944Z,67.99
2018-06-28T00:13:06.010Z,67.61
2018-06-28T00:14:59.521Z,67.41
2018-06-28T00:15:59.572Z,67.00
2018-06-28T00:17:52.563Z,66.55
2018-06-28T00:18:52.631Z,66.93
2018-06-28T00:20:45.628Z,66.90
2018-06-28T00:21:45.686Z,66.52
2018-06-28T00:23:38.678Z,65.94
2018-06-28T00:24:38.759Z,66.42
2018-06-28T00:26:31.746Z,65.84
2018-06-28T00:27:31.803Z,66.03
2018-06-28T00:29:24.805Z,64.98
2018-06-28T00:30:24.863Z,64.59
2018-06-28T00:32:17.862Z,64.50
2018-06-28T00:33:17.922Z,64.69
2018-06-28T00:35:10.922Z,64.22
2018-06-28T00:36:11.012Z,63.92
2018-06-28T00:38:03.973Z,63.25
2018-06-28T00:39:04.038Z,63.16
2018-06-28T00:40:57.038Z,63.06
2018-06-28T00:41:57.094Z,62.87
2018-06-28T00:43:50.088Z,62.48
2018-06-28T00:44:50.150Z,62.58
2018-06-28T00:46:43.152Z,62.77
2018-06-28T00:47:43.210Z,62.19
2018-06-28T00:49:36.203Z,62.01
2018-06-28T00:50:36.266Z,61.52
2018-06-28T00:52:29.266Z,61.52
2018-06-28T00:53:29.324Z,61.81
2018-06-28T00:55:22.330Z,61.43
2018-06-28T00:56:22.380Z,60.95
2018-06-28T00:58:15.373Z,61.43
2018-06-28T00:59:15.438Z,61.24
2018-06-28T01:01:08.437Z,60.95
2018-06-28T01:02:08.494Z,61.02
2018-06-28T01:04:01.485Z,61.14
2018-06-28T01:05:01.550Z,60.95
2018-06-28T01:06:54.550Z,60.57
2018-06-28T01:07:54.606Z,60.44
2018-06-28T01:09:47.598Z,60.38
2018-06-28T01:10:47.663Z,60.15
2018-06-28T01:12:40.663Z,60.15
2018-06-28T01:13:40.721Z,60.05
2018-06-28T01:15:33.710Z,59.48
2018-06-28T01:16:33.776Z,59.29
2018-06-28T01:18:26.775Z,59.19
2018-06-28T01:19:26.832Z,59.48
2018-06-28T01:21:19.823Z,59.48
2018-06-28T01:22:19.887Z,59.77
2018-06-28T01:24:12.887Z,59.38
2018-06-28T01:25:12.944Z,59.09
2018-06-28T01:27:05.944Z,58.91
2018-06-28T01:28:06.001Z,59.09
2018-06-28T01:29:58.994Z,58.91
2018-06-28T01:30:59.062Z,58.71
2018-06-28T01:32:52.059Z,58.71
2018-06-28T01:33:52.116Z,58.52
2018-06-28T01:35:45.109Z,58.91
2018-06-28T01:36:45.171Z,58.91
2018-06-28T01:38:38.170Z,58.71
2018-06-28T01:39:38.229Z,58.52
2018-06-28T01:41:31.223Z,59.09
2018-06-28T01:42:31.284Z,58.62
2018-06-28T01:44:24.284Z,58.33
2018-06-28T01:45:24.338Z,57.85
2018-06-28T01:47:17.339Z,58.14
2018-06-28T01:48:17.398Z,57.95
2018-06-28T01:50:10.388Z,58.11
2018-06-28T01:51:10.452Z,58.62
2018-06-28T01:53:03.466Z,58.11
2018-06-28T01:54:03.508Z,58.30
2018-06-28T01:55:56.508Z,57.92
2018-06-28T01:56:56.565Z,58.11
2018-06-28T01:58:49.568Z,58.69
2018-06-28T01:59:49.622Z,58.30
2018-06-28T02:01:42.614Z,58.59
2018-06-28T02:02:42.681Z,57.82
2018-06-28T02:04:35.680Z,58.49
2018-06-28T02:05:35.738Z,58.49
2018-06-28T02:07:28.730Z,57.72
2018-06-28T02:08:28.793Z,57.92
2018-06-28T02:10:21.794Z,57.72
2018-06-28T02:11:21.852Z,58.01
2018-06-28T02:13:14.843Z,58.20
2018-06-28T02:14:14.909Z,57.92
2018-06-28T02:16:07.914Z,57.72
2018-06-28T02:17:07.969Z,57.72
2018-06-28T02:19:00.973Z,57.24
2018-06-28T02:20:01.027Z,56.86
2018-06-28T02:21:54.018Z,58.01
2018-06-28T02:22:54.082Z,58.01
2018-06-28T02:24:47.078Z,58.01
2018-06-28T02:25:47.141Z,58.11
2018-06-28T02:27:40.136Z,57.34
2018-06-28T02:28:40.200Z,57.34
2018-06-28T02:30:33.200Z,57.31
2018-06-28T02:31:33.258Z,57.31
2018-06-28T02:33:26.250Z,57.70
2018-06-28T02:34:26.312Z,57.24
2018-06-28T02:36:19.314Z,57.12
2018-06-28T02:37:19.373Z,57.12
2018-06-28T02:39:12.365Z,56.83
2018-06-28T02:40:12.427Z,56.83
2018-06-28T02:42:05.424Z,56.64
2018-06-28T02:43:05.483Z,56.35
2018-06-28T02:44:58.483Z,56.54
2018-06-28T02:45:58.540Z,56.16
2018-06-28T02:47:51.537Z,56.35
2018-06-28T02:48:51.601Z,56.45
2018-06-28T02:50:44.601Z,56.54
2018-06-28T02:51:44.654Z,56.74
2018-06-28T02:53:37.655Z,56.26
2018-06-28T02:54:37.717Z,56.16
2018-06-28T02:56:30.714Z,56.54
2018-06-28T02:57:30.770Z,56.45
2018-06-28T02:59:23.762Z,56.83
2018-06-28T03:00:23.824Z,57.03
2018-06-28T03:02:16.824Z,56.64
2018-06-28T03:03:16.887Z,56.35
2018-06-28T03:05:09.881Z,56.64
2018-06-28T03:06:09.942Z,56.35
2018-06-28T03:08:02.946Z,56.16
2018-06-28T03:09:03.001Z,56.16
2018-06-28T03:10:56.001Z,56.07
2018-06-28T03:11:56.056Z,56.07
2018-06-28T03:13:49.048Z,56.32
2018-06-28T03:14:49.113Z,56.42
2018-06-28T03:16:42.114Z,56.54
2018-06-28T03:17:42.173Z,56.32
2018-06-28T03:19:35.163Z,56.32
2018-06-28T03:20:35.227Z,56.52
2018-06-28T03:22:28.224Z,56.93
2018-06-28T03:23:28.283Z,56.61
2018-06-28T03:25:21.282Z,57.03
2018-06-28T03:26:21.348Z,56.52
2018-06-28T03:28:14.342Z,56.35
2018-06-28T03:29:14.400Z,56.71
2018-06-28T03:31:07.488Z,56.71
2018-06-28T03:32:07.459Z,56.90
2018-06-28T03:34:00.457Z,56.71
2018-06-28T03:35:00.516Z,56.61
2018-06-28T03:36:53.514Z,57.28
2018-06-28T03:37:53.653Z,56.83
2018-06-28T03:39:46.564Z,56.81
2018-06-28T03:40:46.630Z,57.03
2018-06-28T03:42:39.622Z,56.61
2018-06-28T03:43:39.679Z,56.52
2018-06-28T03:45:32.679Z,56.64
2018-06-28T03:46:32.744Z,56.64
2018-06-28T03:48:25.745Z,56.42
2018-06-28T03:49:25.803Z,56.81
2018-06-28T03:51:18.793Z,56.71
2018-06-28T03:52:18.857Z,56.52
2018-06-28T03:54:11.858Z,56.61
2018-06-28T03:55:11.913Z,56.16
2018-06-28T03:57:04.911Z,56.42
2018-06-28T03:58:04.966Z,56.54
2018-06-28T03:59:57.964Z,57.79
2018-06-28T04:00:58.033Z,56.26
2018-06-28T04:02:51.026Z,56.83
2018-06-28T04:03:51.085Z,57.57
2018-06-28T04:05:44.083Z,56.64
2018-06-28T04:06:44.148Z,57.12
2018-06-28T04:08:37.140Z,57.03
2018-06-28T04:09:37.200Z,57.89
2018-06-28T04:11:30.193Z,57.03
2018-06-28T04:12:30.252Z,57.31
2018-06-28T04:14:23.765Z,56.64
2018-06-28T04:15:23.815Z,57.12
2018-06-28T04:17:16.824Z,57.03
2018-06-28T04:18:16.867Z,58.27
2018-06-28T04:20:09.861Z,57.60
2018-06-28T04:21:09.925Z,57.21
2018-06-28T04:23:02.920Z,58.08
2018-06-28T04:24:02.979Z,57.31
2018-06-28T04:25:55.974Z,57.72
2018-06-28T04:26:56.037Z,56.35
2018-06-28T04:28:49.043Z,56.38
2018-06-28T04:29:49.102Z,56.76
2018-06-28T04:31:42.090Z,57.15
2018-06-28T04:32:42.160Z,56.86
2018-06-28T04:34:35.153Z,57.43
2018-06-28T04:35:35.213Z,56.76
2018-06-28T04:37:28.203Z,56.48
2018-06-28T04:38:28.266Z,57.43
2018-06-28T04:40:21.264Z,57.53
2018-06-28T04:41:21.321Z,57.15
2018-06-28T04:43:14.324Z,57.63
2018-06-28T04:44:14.374Z,58.20
2018-06-28T04:46:07.375Z,58.30
2018-06-28T04:47:07.442Z,60.15
2018-06-28T04:49:00.435Z,60.82
2018-06-28T04:50:00.494Z,60.15
2018-06-28T04:51:53.490Z,60.92
2018-06-28T04:52:53.556Z,60.82
2018-06-28T04:54:46.551Z,60.92
2018-06-28T04:55:46.608Z,60.53
2018-06-28T04:57:39.618Z,60.15
2018-06-28T04:58:39.672Z,60.05
2018-06-28T05:00:32.669Z,60.92
2018-06-28T05:01:32.726Z,61.02
2018-06-28T05:03:25.718Z,61.49
2018-06-28T05:04:25.781Z,60.95
2018-06-28T05:06:18.782Z,60.85
2018-06-28T05:07:18.837Z,60.92
2018-06-28T05:09:11.841Z,59.99
2018-06-28T05:10:11.897Z,60.66
2018-06-28T05:12:04.888Z,59.89
2018-06-28T05:13:04.952Z,61.05
2018-06-28T05:14:58.458Z,60.95
2018-06-28T05:15:58.514Z,60.66
2018-06-28T05:17:51.507Z,61.14
2018-06-28T05:18:51.570Z,60.75
2018-06-28T05:20:44.574Z,59.80
2018-06-28T05:21:44.625Z,61.81
2018-06-28T05:23:37.617Z,61.52
2018-06-28T05:24:37.682Z,62.10
2018-06-28T05:26:30.677Z,62.32
2018-06-28T05:27:30.739Z,62.32
2018-06-28T05:29:23.740Z,62.99
2018-06-28T05:30:23.798Z,63.19
2018-06-28T05:32:16.788Z,60.98
2018-06-28T05:33:16.853Z,61.84
2018-06-28T05:35:09.852Z,64.72
2018-06-28T05:36:09.908Z,64.43
2018-06-28T05:38:02.907Z,63.60
2018-06-28T05:39:02.967Z,63.79
2018-06-28T05:40:55.962Z,63.60
2018-06-28T05:41:56.022Z,63.32
2018-06-28T05:43:49.016Z,65.33
2018-06-28T05:44:49.085Z,63.51
2018-06-28T05:46:42.085Z,63.70
2018-06-28T05:47:42.224Z,63.89
2018-06-28T05:49:35.136Z,63.60
2018-06-28T05:50:35.200Z,63.41
2018-06-28T05:52:28.200Z,63.70
2018-06-28T05:53:28.256Z,64.56
2018-06-28T05:55:21.259Z,64.18
2018-06-28T05:56:21.311Z,65.75
2018-06-28T05:58:14.306Z,67.00
2018-06-28T05:59:14.369Z,66.81
2018-06-28T06:01:07.370Z,68.76
2018-06-28T06:02:07.429Z,67.80
2018-06-28T06:04:00.421Z,67.51
2018-06-28T06:05:00.486Z,66.74
2018-06-28T06:06:53.487Z,69.44
2018-06-28T06:07:53.546Z,69.47
2018-06-28T06:09:46.539Z,70.43
2018-06-28T06:10:46.605Z,70.76
2018-06-28T06:12:39.601Z,73.88
2018-06-28T06:13:39.660Z,74.68
2018-06-28T06:15:32.653Z,76.13
2018-06-28T06:16:32.719Z,76.59
2018-06-28T06:18:25.722Z,77.69
2018-06-28T06:19:25.777Z,76.42
2018-06-28T06:21:18.779Z,74.05
2018-06-28T06:22:18.838Z,70.40
2018-06-28T06:24:11.832Z,63.10
2018-06-28T06:25:11.895Z,61.16
2018-06-28T06:27:04.897Z,58.33
2018-06-28T06:28:04.956Z,56.71
2018-06-28T06:29:57.952Z,55.27
2018-06-28T06:30:58.118Z,53.94
2018-06-28T06:32:51.023Z,52.14
2018-06-28T06:33:51.086Z,50.85
2018-06-28T06:35:44.092Z,50.41
2018-06-28T06:36:44.163Z,49.83
2018-06-28T06:38:37.168Z,48.41
2018-06-28T06:39:37.232Z,47.75
2018-06-28T06:41:30.237Z,46.60
2018-06-28T06:42:30.307Z,46.14
2018-06-28T06:44:23.320Z,44.13
2018-06-28T06:45:23.389Z,43.66
2018-06-28T06:47:16.402Z,41.72
2018-06-28T06:48:16.468Z,42.33
2018-06-28T06:50:09.478Z,41.13
2018-06-28T06:51:09.552Z,41.99
2018-06-28T06:53:02.567Z,42.23
2018-06-28T06:54:02.635Z,40.63
2018-06-28T06:55:55.652Z,38.98
2018-06-28T06:56:55.725Z,37.38
2018-06-28T06:58:48.746Z,37.13
2018-06-28T06:59:48.822Z,37.32
2018-06-28T07:01:41.829Z,36.59
2018-06-28T07:02:41.904Z,35.82
2018-06-28T07:04:34.927Z,35.15
2018-06-28T07:05:34.997Z,35.00
2018-06-28T07:07:28.017Z,33.92
2018-06-28T07:08:28.091Z,33.33
2018-06-28T07:10:21.212Z,33.13
2018-06-28T07:11:21.184Z,33.82
2018-06-28T07:13:14.207Z,32.56
2018-06-28T07:14:14.277Z,32.35
2018-06-28T07:16:07.445Z,32.19
2018-06-28T07:17:07.377Z,32.10
2018-06-28T07:19:00.400Z,30.69
2018-06-28T07:20:00.472Z,30.79
2018-06-28T07:21:53.520Z,30.92
2018-06-28T07:22:53.760Z,30.64
2018-06-28T07:24:46.625Z,28.88
2018-06-28T07:25:46.698Z,29.07
2018-06-28T07:27:39.719Z,28.49
2018-06-28T07:28:39.835Z,28.55
2018-06-28T07:30:32.828Z,30.50
2018-06-28T07:31:32.900Z,30.43
2018-06-28T07:33:25.932Z,29.34
2018-06-28T07:34:26.001Z,28.96
2018-06-28T07:36:19.021Z,28.76
2018-06-28T07:37:19.104Z,28.79
2018-06-28T07:39:12.133Z,27.50
2018-06-28T07:40:12.207Z,27.31
2018-06-28T07:42:05.231Z,25.93
2018-06-28T07:43:05.314Z,26.12
2018-06-28T07:44:58.346Z,26.80
2018-06-28T07:45:58.417Z,27.17
2018-06-28T07:47:51.443Z,27.31
2018-06-28T07:48:51.525Z,26.61
2018-06-28T07:50:44.557Z,26.33
2018-06-28T07:51:44.633Z,26.26
2018-06-28T07:53:37.664Z,24.76
2018-06-28T07:54:37.748Z,25.45
2018-06-28T07:56:30.782Z,25.24
2018-06-28T07:57:30.856Z,25.25
2018-06-28T07:59:23.894Z,24.85
2018-06-28T08:00:23.970Z,24.76
2018-06-28T08:02:17.001Z,24.48
2018-06-28T08:03:17.079Z,25.33
2018-06-28T08:05:10.113Z,24.46
2018-06-28T08:06:10.190Z,24.20
2018-06-28T08:08:03.220Z,23.32
2018-06-28T08:09:03.304Z,23.13
2018-06-28T08:10:56.337Z,22.66
2018-06-28T08:11:56.414Z,22.25
2018-06-28T08:13:49.449Z,23.52
2018-06-28T08:14:49.523Z,22.64
2018-06-28T08:16:42.564Z,22.39
2018-06-28T08:17:42.642Z,21.61
2018-06-28T08:19:35.680Z,21.91
2018-06-28T08:20:35.763Z,23.82
2018-06-28T08:22:28.802Z,25.24
2018-06-28T08:23:28.884Z,24.66
2018-06-28T08:25:21.924Z,23.22
2018-06-28T08:26:21.994Z,22.30
2018-06-28T08:28:15.035Z,23.78
2018-06-28T08:29:15.115Z,24.44
2018-06-28T08:31:08.152Z,22.50
2018-06-28T08:32:08.236Z,22.22
2018-06-28T08:34:01.275Z,23.59
2018-06-28T08:35:01.353Z,22.44
2018-06-28T08:36:54.393Z,21.86
2018-06-28T08:37:54.472Z,22.26
2018-06-28T08:39:47.507Z,22.97
2018-06-28T08:40:47.592Z,22.40
2018-06-28T08:42:40.640Z,22.22
2018-06-28T08:43:40.719Z,22.44
2018-06-28T08:45:33.768Z,22.14
2018-06-28T08:46:33.837Z,21.55
2018-06-28T08:48:26.883Z,21.63
2018-06-28T08:49:26.970Z,22.31
2018-06-28T08:51:20.012Z,23.11
2018-06-28T08:52:20.091Z,22.20
2018-06-28T08:54:13.129Z,22.92
2018-06-28T08:55:13.216Z,21.95
2018-06-28T08:57:06.264Z,22.14
2018-06-28T08:58:06.380Z,22.33
2018-06-28T08:59:59.389Z,24.05
2018-06-28T09:00:59.476Z,24.03
2018-06-28T09:02:52.528Z,24.71
2018-06-28T09:03:52.614Z,24.73
2018-06-28T09:05:45.681Z,25.57
2018-06-28T09:06:45.732Z,26.07
2018-06-28T09:08:38.773Z,26.26
2018-06-28T09:09:38.857Z,25.89
2018-06-28T09:11:31.902Z,26.12
2018-06-28T09:12:31.982Z,29.94
2018-06-28T09:14:25.524Z,30.79
2018-06-28T09:15:25.675Z,29.06
2018-06-28T09:17:18.649Z,28.17
2018-06-28T09:18:18.731Z,28.86
2018-06-28T09:20:11.759Z,27.83
2018-06-28T09:21:11.843Z,30.34
2018-06-28T09:23:04.925Z,30.30
2018-06-28T09:24:04.957Z,30.28
2018-06-28T09:25:57.987Z,30.47
2018-06-28T09:26:58.071Z,30.10
2018-06-28T09:28:51.110Z,29.34
2018-06-28T09:29:51.179Z,28.77
2018-06-28T09:31:44.232Z,27.78
2018-06-28T09:32:44.294Z,28.66
2018-06-28T09:34:37.331Z,28.95
2018-06-28T09:35:37.414Z,30.35
2018-06-28T09:37:30.452Z,33.69
2018-06-28T09:38:30.534Z,34.05
2018-06-28T09:40:23.559Z,34.14
2018-06-28T09:41:23.638Z,34.72
2018-06-28T09:43:16.668Z,35.19
2018-06-28T09:44:16.741Z,35.68
2018-06-28T09:46:09.769Z,36.54
2018-06-28T09:47:09.850Z,36.05
2018-06-28T09:49:02.872Z,38.43
2018-06-28T09:50:02.946Z,38.02
2018-06-28T09:51:55.965Z,40.37
2018-06-28T09:52:56.040Z,40.08
2018-06-28T09:54:49.104Z,40.91
2018-06-28T09:55:49.138Z,40.03
2018-06-28T09:57:42.175Z,39.37
2018-06-28T09:58:42.226Z,39.96
2018-06-28T10:00:35.377Z,39.57
2018-06-28T10:01:35.321Z,40.45
2018-06-28T10:03:28.351Z,38.30
2018-06-28T10:04:28.419Z,39.86
2018-06-28T10:06:21.435Z,39.39
2018-06-28T10:07:21.507Z,40.06
2018-06-28T10:09:14.537Z,39.00
2018-06-28T10:10:14.643Z,38.90
2018-06-28T10:12:07.620Z,39.55
2018-06-28T10:13:07.693Z,39.65
2018-06-28T10:15:01.221Z,40.62
2018-06-28T10:16:01.287Z,40.72
2018-06-28T10:17:54.299Z,41.11
2018-06-28T10:18:54.372Z,39.36
2018-06-28T10:20:47.446Z,40.55
2018-06-28T10:21:47.458Z,40.45
2018-06-28T10:23:40.476Z,40.52
2018-06-28T10:24:40.573Z,40.52
2018-06-28T10:26:33.552Z,42.28
2018-06-28T10:27:33.625Z,41.79
2018-06-28T10:29:26.646Z,43.25
2018-06-28T10:30:26.717Z,40.99
2018-06-28T10:32:19.727Z,41.20
2018-06-28T10:33:19.814Z,40.42
2018-06-28T10:35:12.818Z,40.80
2018-06-28T10:36:12.886Z,41.20
2018-06-28T10:38:05.895Z,41.19
2018-06-28T10:39:05.969Z,41.57
2018-06-28T10:40:59.063Z,41.69
2018-06-28T10:41:59.050Z,41.67
2018-06-28T10:43:52.062Z,42.76
2018-06-28T10:44:52.135Z,41.69
2018-06-28T10:46:45.155Z,43.05
2018-06-28T10:47:45.217Z,43.05
2018-06-28T10:49:38.231Z,41.67
2018-06-28T10:50:38.299Z,42.35
2018-06-28T10:52:31.313Z,42.06
2018-06-28T10:53:31.379Z,42.86
2018-06-28T10:55:24.401Z,41.57
2018-06-28T10:56:24.475Z,41.55
2018-06-28T10:58:17.477Z,41.85
2018-06-28T10:59:17.544Z,41.75
2018-06-28T11:01:10.554Z,41.75
2018-06-28T11:02:10.629Z,41.85
2018-06-28T11:04:03.645Z,41.09
2018-06-28T11:05:03.718Z,41.38
2018-06-28T11:06:56.723Z,42.84
2018-06-28T11:07:56.792Z,42.84
2018-06-28T11:09:49.802Z,43.13
2018-06-28T11:10:49.872Z,42.35
2018-06-28T11:12:42.894Z,41.96
2018-06-28T11:13:42.951Z,42.06
2018-06-28T11:15:36.526Z,43.54
2018-06-28T11:16:36.623Z,43.04
2018-06-28T11:18:29.557Z,43.21
2018-06-28T11:19:29.620Z,43.96
2018-06-28T11:21:22.636Z,43.99
2018-06-28T11:22:22.703Z,43.60
2018-06-28T11:24:15.714Z,43.11
2018-06-28T11:25:15.784Z,43.11
2018-06-28T11:27:08.797Z,42.24
2018-06-28T11:28:08.863Z,41.83
2018-06-28T11:30:01.872Z,41.83
2018-06-28T11:31:01.942Z,42.24
2018-06-28T11:32:54.957Z,42.33
2018-06-28T11:33:55.023Z,43.30
2018-06-28T11:35:48.052Z,41.94
2018-06-28T11:36:48.106Z,41.34
2018-06-28T11:38:41.111Z,42.70
2018-06-28T11:39:41.181Z,42.90
2018-06-28T11:41:34.199Z,42.82
2018-06-28T11:42:34.267Z,40.48
2018-06-28T11:44:27.275Z,40.68
2018-06-28T11:45:27.345Z,40.68
2018-06-28T11:47:20.360Z,40.39
2018-06-28T11:48:20.425Z,41.06
2018-06-28T11:50:13.441Z,40.39
2018-06-28T11:51:13.508Z,40.48
2018-06-28T11:53:06.522Z,42.43
2018-06-28T11:54:06.589Z,41.75
2018-06-28T11:55:59.597Z,41.55
2018-06-28T11:56:59.668Z,42.35
2018-06-28T11:58:52.686Z,41.09
2018-06-28T11:59:52.746Z,40.80
2018-06-28T12:01:45.755Z,41.48
2018-06-28T12:02:45.822Z,41.48
2018-06-28T12:04:38.828Z,40.60
2018-06-28T12:05:38.956Z,40.99
2018-06-28T12:07:31.915Z,40.99
2018-06-28T12:08:31.982Z,40.60
2018-06-28T12:10:24.988Z,40.60
2018-06-28T12:11:25.060Z,42.25
2018-06-28T12:13:18.074Z,42.74
2018-06-28T12:14:18.140Z,41.75
2018-06-28T12:16:11.152Z,41.57
2018-06-28T12:17:11.221Z,41.86
2018-06-28T12:19:04.232Z,40.80
2018-06-28T12:20:04.298Z,40.70
2018-06-28T12:21:57.313Z,40.60
2018-06-28T12:22:57.377Z,40.60
2018-06-28T12:24:50.392Z,40.60
2018-06-28T12:25:50.455Z,40.80
2018-06-28T12:27:43.468Z,40.68
2018-06-28T12:28:43.533Z,40.78
2018-06-28T12:30:36.539Z,41.48
2018-06-28T12:31:36.616Z,42.74
2018-06-28T12:33:29.622Z,41.09
2018-06-28T12:34:29.694Z,41.09
2018-06-28T12:36:22.693Z,40.52
2018-06-28T12:37:22.765Z,40.72
2018-06-28T12:39:15.821Z,40.31
2018-06-28T12:40:15.844Z,40.80
2018-06-28T12:42:08.859Z,41.57
2018-06-28T12:43:08.938Z,41.38
2018-06-28T12:45:01.957Z,41.48
2018-06-28T12:46:02.008Z,40.80
2018-06-28T12:47:55.033Z,40.99
2018-06-28T12:48:55.085Z,40.88
2018-06-28T12:50:48.094Z,41.16
2018-06-28T12:51:48.168Z,40.48
2018-06-28T12:53:41.181Z,40.58
2018-06-28T12:54:41.247Z,40.29
2018-06-28T12:56:34.258Z,41.06
2018-06-28T12:57:34.330Z,41.77
2018-06-28T12:59:27.344Z,40.89
2018-06-28T13:00:27.408Z,41.09
2018-06-28T13:02:20.410Z,41.67
2018-06-28T13:03:20.483Z,41.96
2018-06-28T13:05:13.496Z,41.48
2018-06-28T13:06:13.560Z,41.38
2018-06-28T13:08:06.579Z,40.68
2018-06-28T13:09:06.640Z,39.41
2018-06-28T13:11:01.146Z,39.80
2018-06-28T13:12:01.477Z,40.19
2018-06-28T13:13:55.741Z,40.01
2018-06-28T13:14:55.807Z,39.92
2018-06-28T13:16:48.811Z,38.87
2018-06-28T13:17:48.882Z,39.55
2018-06-28T13:19:42.400Z,39.06
2018-06-28T13:20:42.462Z,39.94
2018-06-28T13:22:35.467Z,41.09
2018-06-28T13:23:35.547Z,41.67
2018-06-28T13:25:28.552Z,42.74
2018-06-28T13:26:28.617Z,43.23
2018-06-28T13:28:21.616Z,41.77
2018-06-28T13:29:21.690Z,43.23
2018-06-28T13:31:14.701Z,40.42
2018-06-28T13:32:14.768Z,40.60
2018-06-28T13:34:07.795Z,40.31
2018-06-28T13:35:07.840Z,40.60
2018-06-28T13:37:00.856Z,37.19
2018-06-28T13:38:00.931Z,40.21
2018-06-28T13:39:53.946Z,41.48
2018-06-28T13:40:54.148Z,41.55
2018-06-28T13:42:47.018Z,41.46
2018-06-28T13:43:47.086Z,40.50
2018-06-28T13:45:40.103Z,38.44
2018-06-28T13:46:40.163Z,39.34
2018-06-28T13:48:33.170Z,38.75
2018-06-28T13:49:33.243Z,39.72
2018-06-28T13:51:26.254Z,40.23
2018-06-28T13:52:26.318Z,39.45
2018-06-28T13:54:19.328Z,39.84
2018-06-28T13:55:19.398Z,40.42
2018-06-28T13:57:12.410Z,40.60
2018-06-28T13:58:12.473Z,40.99
2018-06-28T14:00:05.488Z,41.06
2018-06-28T14:01:05.548Z,42.33
2018-06-28T14:02:58.570Z,42.50
2018-06-28T14:03:58.627Z,41.53
2018-06-28T14:05:51.643Z,41.83
2018-06-28T14:06:51.708Z,41.63
2018-06-28T14:08:44.712Z,41.05
2018-06-28T14:09:44.784Z,40.85
2018-06-28T14:11:37.794Z,41.16
2018-06-28T14:12:37.860Z,41.75
2018-06-28T14:14:30.866Z,41.16
2018-06-28T14:15:30.941Z,41.28
2018-06-28T14:17:23.948Z,41.96
2018-06-28T14:18:24.010Z,41.94
2018-06-28T14:20:17.012Z,41.86
2018-06-28T14:21:17.089Z,41.75
2018-06-28T14:23:10.098Z,41.86
2018-06-28T14:24:10.164Z,41.77
2018-06-28T14:26:03.174Z,42.55
2018-06-28T14:27:03.239Z,42.65
2018-06-28T14:28:56.241Z,41.48
2018-06-28T14:29:56.316Z,40.21
2018-06-28T14:31:49.325Z,40.31
2018-06-28T14:32:49.400Z,40.60
2018-06-28T14:34:42.404Z,41.67
2018-06-28T14:35:42.474Z,41.28
2018-06-28T14:37:35.489Z,41.19
2018-06-28T14:38:35.554Z,41.19
2018-06-28T14:40:28.564Z,41.77
2018-06-28T14:41:28.636Z,42.45
2018-06-28T14:43:21.645Z,42.24
2018-06-28T14:44:21.706Z,43.52
2018-06-28T14:46:14.716Z,42.91
2018-06-28T14:47:14.847Z,42.04
2018-06-28T14:49:07.805Z,41.94
2018-06-28T14:50:07.874Z,42.24
2018-06-28T14:52:00.877Z,42.63
2018-06-28T14:53:00.947Z,41.75
2018-06-28T14:54:53.973Z,42.25
2018-06-28T14:55:54.024Z,43.13
2018-06-28T14:57:47.038Z,42.65
2018-06-28T14:58:47.102Z,42.63
2018-06-28T15:00:40.109Z,43.13
2018-06-28T15:01:40.182Z,43.91
2018-06-28T15:03:33.193Z,43.30
2018-06-28T15:04:33.260Z,43.40
2018-06-28T15:06:26.266Z,43.11
2018-06-28T15:07:26.382Z,43.01
2018-06-28T15:09:19.349Z,42.50
2018-06-28T15:10:19.416Z,42.21
2018-06-28T15:12:12.417Z,42.72
2018-06-28T15:13:12.491Z,43.01
2018-06-28T15:15:05.503Z,42.25
2018-06-28T15:16:05.605Z,42.65
2018-06-28T15:17:58.595Z,42.45
2018-06-28T15:18:58.641Z,42.16
2018-06-28T15:20:51.670Z,40.91
2018-06-28T15:21:51.728Z,40.91
2018-06-28T15:23:45.259Z,40.23
2018-06-28T15:24:46.617Z,40.03
2018-06-28T15:26:38.317Z,40.99
2018-06-28T15:27:38.445Z,41.67
2018-06-28T15:29:31.403Z,42.55
2018-06-28T15:30:31.464Z,41.96
2018-06-28T15:32:24.473Z,42.06
2018-06-28T15:33:24.613Z,42.24
2018-06-28T15:35:17.555Z,41.85
2018-06-28T15:36:17.621Z,42.16
2018-06-28T15:38:10.635Z,42.04
2018-06-28T15:39:10.698Z,40.58
2018-06-28T15:41:03.710Z,41.55
2018-06-28T15:42:03.776Z,40.88
2018-06-28T15:43:56.805Z,41.06
2018-06-28T15:44:56.849Z,41.26
2018-06-28T15:46:49.859Z,41.94
2018-06-28T15:47:49.923Z,41.38
2018-06-28T15:49:42.937Z,41.19
2018-06-28T15:50:43.007Z,41.38
2018-06-28T15:52:36.022Z,41.96
2018-06-28T15:53:36.084Z,42.14
2018-06-28T15:55:29.095Z,42.53
2018-06-28T15:56:29.161Z,42.53
2018-06-28T15:58:22.676Z,42.43
2018-06-28T15:59:22.742Z,43.09
2018-06-28T16:01:15.756Z,43.38
2018-06-28T16:02:15.822Z,42.99
2018-06-28T16:04:08.829Z,40.66
2018-06-28T16:05:08.897Z,42.31
2018-06-28T16:07:01.901Z,41.94
2018-06-28T16:08:02.167Z,42.50
2018-06-28T16:09:54.985Z,42.02
2018-06-28T16:10:55.048Z,42.41
2018-06-28T16:12:48.076Z,41.44
2018-06-28T16:13:48.131Z,42.41
2018-06-28T16:15:41.147Z,42.72
2018-06-28T16:16:41.212Z,42.72
2018-06-28T16:18:34.219Z,41.63
2018-06-28T16:19:34.285Z,41.93
2018-06-28T16:21:27.296Z,42.90
2018-06-28T16:22:27.361Z,43.58
2018-06-28T16:24:20.376Z,43.67
2018-06-28T16:25:20.433Z,43.29
2018-06-28T16:27:13.447Z,43.58
2018-06-28T16:28:13.512Z,43.48
2018-06-28T16:30:06.528Z,43.87
2018-06-28T16:31:06.589Z,43.26
2018-06-28T16:32:59.598Z,44.14
2018-06-28T16:33:59.718Z,44.24
2018-06-28T16:35:52.678Z,44.33
2018-06-28T16:36:52.750Z,44.14
2018-06-28T16:38:45.756Z,44.35
2018-06-28T16:39:45.829Z,44.43
2018-06-28T16:41:38.832Z,44.33
2018-06-28T16:42:38.899Z,44.74
2018-06-28T16:44:31.905Z,44.06
2018-06-28T16:45:31.979Z,43.96
2018-06-28T16:47:24.991Z,43.38
2018-06-28T16:48:25.055Z,43.55
2018-06-28T16:50:18.079Z,44.04
2018-06-28T16:51:18.129Z,43.75
2018-06-28T16:53:11.183Z,43.26
2018-06-28T16:54:11.227Z,43.46
2018-06-28T16:56:04.227Z,44.14
2018-06-28T16:57:04.284Z,43.85
2018-06-28T16:58:57.801Z,44.04
2018-06-28T16:59:57.866Z,43.65
2018-06-28T17:01:50.876Z,43.46
2018-06-28T17:02:50.946Z,43.36
2018-06-28T17:04:43.945Z,43.46
2018-06-28T17:05:44.017Z,43.26
2018-06-28T17:07:37.068Z,43.95
2018-06-28T17:08:37.090Z,43.75
2018-06-28T17:10:30.097Z,43.36
2018-06-28T17:11:30.164Z,43.75
2018-06-28T17:13:23.171Z,43.85
2018-06-28T17:14:23.239Z,43.82
2018-06-28T17:16:16.255Z,44.04
2018-06-28T17:17:16.394Z,43.82
2018-06-28T17:19:09.341Z,44.02
2018-06-28T17:20:09.472Z,43.92
2018-06-28T17:22:02.413Z,44.21
2018-06-28T17:23:02.478Z,44.12
2018-06-28T17:24:55.488Z,44.31
2018-06-28T17:25:55.555Z,44.41
2018-06-28T17:27:48.567Z,44.79
2018-06-28T17:28:48.633Z,44.41
2018-06-28T17:30:41.633Z,45.28
2018-06-28T17:31:41.750Z,45.07
2018-06-28T17:33:34.715Z,44.70
2018-06-28T17:34:34.777Z,45.17
2018-06-28T17:36:27.796Z,44.70
2018-06-28T17:37:27.882Z,44.68
2018-06-28T17:39:20.858Z,45.07
2018-06-28T17:40:20.954Z,45.36
2018-06-28T17:42:13.932Z,45.36
2018-06-28T17:43:13.998Z,45.72
2018-06-28T17:45:06.995Z,46.11
2018-06-28T17:46:07.070Z,46.60
2018-06-28T17:48:00.078Z,46.69
2018-06-28T17:49:00.142Z,46.79
2018-06-28T17:50:53.145Z,47.28
2018-06-28T17:51:53.216Z,47.08
2018-06-28T17:53:46.223Z,44.95
2018-06-28T17:54:46.288Z,46.69
2018-06-28T17:56:39.289Z,47.28
2018-06-28T17:57:39.361Z,47.55
2018-06-28T17:59:32.369Z,47.57
2018-06-28T18:00:32.437Z,47.86
2018-06-28T18:02:25.441Z,47.96
2018-06-28T18:03:25.508Z,48.25
2018-06-28T18:05:18.506Z,47.16
2018-06-28T18:06:18.577Z,47.38
2018-06-28T18:08:11.583Z,47.83
2018-06-28T18:09:11.754Z,47.66
2018-06-28T18:11:04.652Z,47.83
2018-06-28T18:12:04.726Z,47.74
2018-06-28T18:13:57.731Z,48.15
2018-06-28T18:14:57.791Z,48.03
2018-06-28T18:16:51.803Z,48.03
2018-06-28T18:17:51.871Z,47.93
2018-06-28T18:19:44.877Z,48.03
2018-06-28T18:20:44.956Z,48.42
2018-06-28T18:22:37.950Z,48.22
2018-06-28T18:23:38.012Z,48.42
2018-06-28T18:25:31.039Z,48.39
2018-06-28T18:26:31.164Z,48.00
2018-06-28T18:28:24.624Z,48.00
2018-06-28T18:29:24.683Z,49.07
2018-06-28T18:31:17.690Z,49.37
2018-06-28T18:32:17.755Z,49.37
2018-06-28T18:34:10.792Z,48.78